createdAt,value
2019-02-08T00:00:56.042Z,26.90
2019-02-08T00:03:25.366Z,26.97
2019-02-08T00:05:54.705Z,28.10
2019-02-08T00:08:24.370Z,28.17
2019-02-08T00:10:53.868Z,27.97
2019-02-08T00:13:23.133Z,26.60
2019-02-08T00:15:52.504Z,24.73
2019-02-08T00:18:21.841Z,24.50
2019-02-08T00:20:51.139Z,24.83
2019-02-08T00:23:27.216Z,25.63
2019-02-08T00:25:52.867Z,23.67
2019-02-08T00:28:22.142Z,24.87
2019-02-08T00:30:51.438Z,26.90
2019-02-08T00:33:20.724Z,25.37
2019-02-08T00:35:49.998Z,25.20
2019-02-08T00:38:19.768Z,24.80
2019-02-08T00:40:49.047Z,25.73
2019-02-08T00:43:18.411Z,25.90
2019-02-08T00:45:47.782Z,25.73
2019-02-08T00:48:17.113Z,27.47
2019-02-08T00:50:46.409Z,27.60
2019-02-08T00:53:15.691Z,27.63
2019-02-08T00:55:44.978Z,55.80
2019-02-08T00:58:14.280Z,37.03
2019-02-08T01:00:43.858Z,30.53
2019-02-08T01:03:13.327Z,23.23
2019-02-08T01:05:42.629Z,29.57
2019-02-08T01:08:12.000Z,30.57
2019-02-08T01:10:41.638Z,28.83
2019-02-08T01:13:11.095Z,26.77
2019-02-08T01:15:40.444Z,27.50
2019-02-08T01:18:09.973Z,26.23
2019-02-08T01:20:39.254Z,34.57
2019-02-08T01:23:08.551Z,27.20
2019-02-08T01:25:37.896Z,26.37
2019-02-08T01:28:07.189Z,27.07
2019-02-08T01:30:36.617Z,26.40
2019-02-08T01:33:06.542Z,29.80
2019-02-08T01:35:35.827Z,29.73
2019-02-08T01:38:05.393Z,29.07
2019-02-08T01:40:39.034Z,28.90
2019-02-08T01:43:09.210Z,26.17
2019-02-08T01:45:38.660Z,32.27
2019-02-08T01:48:09.095Z,41.03
2019-02-08T01:50:38.450Z,49.77
2019-02-08T01:53:07.739Z,41.87
2019-02-08T01:55:37.026Z,28.23
2019-02-08T01:58:07.556Z,27.00
2019-02-08T02:00:39.586Z,26.33
2019-02-08T02:03:10.377Z,28.83
2019-02-08T02:05:39.846Z,27.73
2019-02-08T02:08:09.426Z,26.37
2019-02-08T02:10:43.636Z,24.03
2019-02-08T02:13:13.102Z,23.23
2019-02-08T02:15:43.008Z,23.80
2019-02-08T02:18:13.347Z,25.40
2019-02-08T02:20:43.963Z,26.60
2019-02-08T02:23:15.470Z,22.63
2019-02-08T02:25:45.023Z,26.70
2019-02-08T02:28:15.360Z,24.60
2019-02-08T02:30:44.726Z,23.37
2019-02-08T02:33:14.574Z,22.57
2019-02-08T02:35:44.007Z,22.57
2019-02-08T02:38:13.422Z,21.77
2019-02-08T02:40:42.770Z,21.30
2019-02-08T02:43:12.192Z,20.87
2019-02-08T02:45:41.662Z,19.77
2019-02-08T02:48:12.587Z,20.37
2019-02-08T02:50:42.023Z,20.47
2019-02-08T02:53:11.479Z,19.97
2019-02-08T02:55:40.780Z,20.80
2019-02-08T02:58:10.265Z,19.47
2019-02-08T03:00:45.780Z,17.57
2019-02-08T03:03:15.608Z,17.97
2019-02-08T03:05:45.131Z,18.83
2019-02-08T03:08:15.453Z,20.50
2019-02-08T03:10:45.262Z,21.17
2019-02-08T03:13:14.623Z,19.80
2019-02-08T03:15:44.006Z,20.53
2019-02-08T03:18:13.356Z,18.03
2019-02-08T03:20:42.818Z,19.70
2019-02-08T03:23:12.110Z,18.40
2019-02-08T03:25:41.580Z,18.00
2019-02-08T03:28:10.910Z,16.20
2019-02-08T03:30:41.942Z,17.67
2019-02-08T03:33:11.266Z,17.77
2019-02-08T03:35:40.776Z,19.03
2019-02-08T03:38:10.244Z,19.13
2019-02-08T03:40:39.597Z,19.73
2019-02-08T03:43:08.958Z,20.03
2019-02-08T03:45:39.917Z,18.93
2019-02-08T03:48:09.943Z,19.70
2019-02-08T03:50:39.445Z,18.60
2019-02-08T03:53:09.609Z,18.93
2019-02-08T03:55:39.866Z,19.40
2019-02-08T03:58:09.602Z,17.63
2019-02-08T04:00:40.762Z,17.07
2019-02-08T04:03:10.072Z,16.67
2019-02-08T04:05:39.519Z,16.80
2019-02-08T04:08:08.847Z,17.53
2019-02-08T04:10:38.449Z,17.20
2019-02-08T04:13:07.755Z,16.17
2019-02-08T04:15:37.157Z,16.67
2019-02-08T04:18:06.683Z,15.80
2019-02-08T04:20:36.029Z,18.13
2019-02-08T04:23:05.396Z,17.53
2019-02-08T04:25:34.758Z,17.30
2019-02-08T04:28:04.067Z,16.37
2019-02-08T04:30:33.457Z,17.23
2019-02-08T04:33:03.378Z,18.30
2019-02-08T04:35:32.661Z,17.97
2019-02-08T04:38:01.988Z,19.13
2019-02-08T04:40:31.282Z,17.83
2019-02-08T04:43:00.613Z,17.40
2019-02-08T04:45:29.886Z,23.47
2019-02-08T04:47:59.191Z,17.43
2019-02-08T04:50:30.096Z,16.77
2019-02-08T04:52:59.390Z,16.90
2019-02-08T04:55:28.676Z,16.33
2019-02-08T04:57:57.983Z,16.03
2019-02-08T05:00:35.683Z,15.93
2019-02-08T05:03:06.000Z,16.60
2019-02-08T05:05:35.514Z,15.13
2019-02-08T05:08:05.327Z,16.07
2019-02-08T05:10:35.249Z,17.03
2019-02-08T05:13:05.287Z,17.60
2019-02-08T05:15:35.543Z,17.87
2019-02-08T05:18:05.181Z,18.27
2019-02-08T05:20:34.521Z,16.80
2019-02-08T05:23:04.084Z,18.43
2019-02-08T05:25:33.476Z,19.43
2019-02-08T05:28:02.831Z,19.50
2019-02-08T05:30:34.861Z,17.73
2019-02-08T05:33:06.016Z,16.87
2019-02-08T05:35:36.002Z,17.50
2019-02-08T05:38:05.424Z,17.60
2019-02-08T05:40:34.920Z,18.30
2019-02-08T05:43:06.194Z,19.67
2019-02-08T05:45:35.636Z,22.00
2019-02-08T05:48:05.407Z,20.73
2019-02-08T05:50:34.704Z,17.30
2019-02-08T05:53:05.421Z,11.83
2019-02-08T05:55:36.006Z,17.23
2019-02-08T05:58:06.026Z,13.07
2019-02-08T06:00:40.210Z,13.50
2019-02-08T06:03:09.557Z,13.97
2019-02-08T06:05:39.394Z,13.80
2019-02-08T06:08:09.035Z,16.70
2019-02-08T06:10:38.375Z,15.07
2019-02-08T06:13:09.185Z,13.97
2019-02-08T06:15:39.125Z,14.63
2019-02-08T06:18:09.623Z,14.30
2019-02-08T06:20:39.554Z,14.77
2019-02-08T06:23:10.039Z,13.97
2019-02-08T06:25:39.582Z,14.23
2019-02-08T06:28:08.867Z,14.47
2019-02-08T06:30:38.408Z,12.93
2019-02-08T06:33:08.018Z,13.80
2019-02-08T06:35:37.550Z,11.37
2019-02-08T06:38:07.374Z,10.47
2019-02-08T06:40:39.606Z,9.77
2019-02-08T06:43:08.894Z,11.60
2019-02-08T06:45:38.250Z,9.70
2019-02-08T06:48:09.682Z,10.73
2019-02-08T06:50:39.155Z,10.77
2019-02-08T06:53:08.451Z,10.77
2019-02-08T06:55:37.754Z,11.83
2019-02-08T06:58:19.546Z,12.13
2019-02-08T07:00:51.813Z,13.37
2019-02-08T07:03:25.646Z,14.53
2019-02-08T07:06:08.581Z,14.60
2019-02-08T07:08:56.038Z,14.20
2019-02-08T07:11:32.895Z,12.27
2019-02-08T07:14:13.129Z,11.53
2019-02-08T07:17:00.469Z,12.70
2019-02-08T07:19:47.534Z,13.03
2019-02-08T07:22:34.802Z,13.50
2019-02-08T07:25:18.611Z,13.67
2019-02-08T07:27:49.874Z,14.10
2019-02-08T07:30:23.989Z,13.77
2019-02-08T07:32:57.910Z,18.40
2019-02-08T07:35:28.907Z,23.63
2019-02-08T07:38:04.036Z,21.13
2019-02-08T07:40:54.606Z,26.87
2019-02-08T07:43:28.583Z,23.70
2019-02-08T07:46:20.558Z,27.67
2019-02-08T07:49:06.617Z,27.30
2019-02-08T07:51:43.563Z,29.97
2019-02-08T07:54:30.574Z,30.47
2019-02-08T07:57:01.507Z,30.70
2019-02-08T07:59:33.491Z,26.80
2019-02-08T08:02:04.447Z,28.03
2019-02-08T08:04:41.430Z,28.93
2019-02-08T08:07:18.871Z,37.07
2019-02-08T08:09:49.810Z,37.53
2019-02-08T08:12:26.921Z,35.63
2019-02-08T08:15:04.475Z,31.37
2019-02-08T08:17:52.115Z,22.07
2019-02-08T08:20:36.057Z,20.70
2019-02-08T08:23:07.238Z,27.67
2019-02-08T08:25:46.222Z,28.37
2019-02-08T08:28:17.144Z,26.10
2019-02-08T08:30:54.587Z,26.50
2019-02-08T08:33:29.850Z,30.00
2019-02-08T08:36:08.012Z,30.80
2019-02-08T08:39:01.362Z,31.20
2019-02-08T08:41:39.485Z,36.47
2019-02-08T08:44:14.768Z,33.03
2019-02-08T08:47:03.578Z,33.93
2019-02-08T08:49:44.990Z,64.77
2019-02-08T08:52:39.986Z,53.30
2019-02-08T08:55:42.281Z,56.90
2019-02-08T08:58:18.021Z,50.23
2019-02-08T09:00:56.293Z,45.03
2019-02-08T09:03:43.143Z,33.53
2019-02-08T09:06:21.318Z,28.73
2019-02-08T09:08:53.726Z,35.60
2019-02-08T09:11:49.633Z,30.17
2019-02-08T09:14:39.958Z,29.00
2019-02-08T09:17:21.034Z,26.20
2019-02-08T09:20:11.808Z,18.73
2019-02-08T09:23:17.884Z,17.53
2019-02-08T09:26:08.161Z,15.70
2019-02-08T09:29:09.212Z,13.90
2019-02-08T09:31:56.687Z,14.87
2019-02-08T09:34:47.491Z,13.50
2019-02-08T09:37:34.667Z,12.10
2019-02-08T09:40:42.178Z,76.00
2019-02-08T09:43:17.007Z,21.00
2019-02-08T09:46:20.762Z,9.17
2019-02-08T09:49:09.513Z,5.03
2019-02-08T09:51:53.680Z,8.93
2019-02-08T09:54:34.913Z,4.80
2019-02-08T09:57:31.346Z,3.20
2019-02-08T10:00:15.560Z,4.67
2019-02-08T10:02:59.998Z,5.20
2019-02-08T10:05:49.106Z,4.03
2019-02-08T10:08:51.331Z,2.83
2019-02-08T10:11:58.438Z,4.23
2019-02-08T10:14:45.799Z,4.80
2019-02-08T10:17:23.891Z,3.73
2019-02-08T10:20:01.962Z,2.80
2019-02-08T10:22:55.694Z,4.10
2019-02-08T10:25:52.256Z,2.53
2019-02-08T10:28:53.393Z,3.93
2019-02-08T10:31:37.678Z,4.90
2019-02-08T10:34:38.940Z,6.10
2019-02-08T10:37:33.747Z,2.13
2019-02-08T10:40:34.717Z,3.17
2019-02-08T10:43:18.355Z,1.70
2019-02-08T10:46:25.098Z,1.97
2019-02-08T10:49:22.928Z,5.30
2019-02-08T10:52:11.742Z,2.63
2019-02-08T10:54:49.964Z,3.73
2019-02-08T10:57:55.907Z,2.73
2019-02-08T11:00:36.886Z,3.10
2019-02-08T11:03:28.698Z,2.23
2019-02-08T11:06:18.979Z,2.83
2019-02-08T11:09:24.899Z,2.40
2019-02-08T11:12:17.715Z,2.80
2019-02-08T11:15:18.182Z,2.43
2019-02-08T11:18:19.572Z,2.60
2019-02-08T11:20:48.854Z,2.60
2019-02-08T11:23:18.143Z,2.53
2019-02-08T11:25:47.411Z,2.77
2019-02-08T11:28:16.742Z,2.50
2019-02-08T11:30:46.102Z,2.07
2019-02-08T11:33:15.398Z,2.50
2019-02-08T11:35:44.675Z,2.03
2019-02-08T11:38:13.966Z,2.37
2019-02-08T11:40:43.243Z,2.00
2019-02-08T11:43:12.542Z,2.80
2019-02-08T11:45:41.822Z,2.57
2019-02-08T11:48:11.275Z,2.30
2019-02-08T11:50:40.624Z,2.73
2019-02-08T11:53:09.949Z,2.27
2019-02-08T11:55:39.222Z,2.50
2019-02-08T11:58:08.767Z,2.03
2019-02-08T12:00:39.835Z,2.13
2019-02-08T12:03:09.131Z,2.90
2019-02-08T12:05:38.390Z,2.10
2019-02-08T12:08:08.314Z,2.60
2019-02-08T12:10:37.610Z,3.50
2019-02-08T12:13:07.348Z,4.10
2019-02-08T12:15:36.807Z,5.80
2019-02-08T12:18:06.225Z,6.60
2019-02-08T12:20:35.616Z,4.77
2019-02-08T12:23:05.232Z,6.30
2019-02-08T12:25:34.629Z,7.83
2019-02-08T12:28:04.183Z,4.37
2019-02-08T12:30:41.802Z,5.20
2019-02-08T12:33:11.107Z,4.67
2019-02-08T12:35:40.392Z,10.27
2019-02-08T12:38:09.667Z,2.43
2019-02-08T12:40:40.038Z,5.67
2019-02-08T12:43:09.361Z,4.93
2019-02-08T12:45:38.974Z,2.63
2019-02-08T12:48:08.424Z,2.23
2019-02-08T12:50:37.971Z,2.90
2019-02-08T12:53:07.266Z,4.80
2019-02-08T12:55:36.555Z,4.10
2019-02-08T12:58:05.831Z,2.50
2019-02-08T13:00:35.113Z,3.67
2019-02-08T13:03:04.643Z,2.20
2019-02-08T13:05:33.948Z,2.03
2019-02-08T13:08:03.207Z,2.20
2019-02-08T13:10:32.506Z,3.13
2019-02-08T13:13:01.782Z,2.17
2019-02-08T13:15:31.078Z,3.13
2019-02-08T13:18:00.356Z,5.50
2019-02-08T13:20:29.686Z,2.50
2019-02-08T13:22:58.962Z,1.67
2019-02-08T13:25:28.265Z,1.80
2019-02-08T13:27:57.539Z,2.30
2019-02-08T13:30:31.725Z,1.90
2019-02-08T13:33:01.123Z,2.03
2019-02-08T13:35:30.590Z,4.23
2019-02-08T13:37:59.911Z,7.03
2019-02-08T13:40:30.534Z,14.30
2019-02-08T13:42:59.866Z,8.67
2019-02-08T13:45:30.094Z,7.20
2019-02-08T13:47:59.478Z,2.90
2019-02-08T13:50:34.274Z,2.17
2019-02-08T13:53:03.735Z,4.13
2019-02-08T13:55:33.091Z,4.90
2019-02-08T13:58:02.505Z,3.20
2019-02-08T14:00:40.401Z,2.30
2019-02-08T14:03:09.815Z,2.13
2019-02-08T14:05:40.535Z,2.90
2019-02-08T14:08:09.903Z,2.30
2019-02-08T14:10:39.169Z,2.30
2019-02-08T14:13:08.725Z,2.40
2019-02-08T14:15:38.014Z,2.10
2019-02-08T14:18:07.456Z,2.70
2019-02-08T14:20:36.804Z,3.70
2019-02-08T14:23:06.096Z,3.10
2019-02-08T14:25:35.370Z,4.60
2019-02-08T14:28:04.753Z,3.67
2019-02-08T14:30:36.991Z,3.90
2019-02-08T14:33:06.593Z,3.40
2019-02-08T14:35:36.165Z,3.33
2019-02-08T14:38:08.700Z,2.67
2019-02-08T14:40:38.126Z,2.77
2019-02-08T14:43:07.418Z,3.13
2019-02-08T14:45:36.832Z,3.00
2019-02-08T14:48:06.264Z,3.47
2019-02-08T14:50:35.542Z,3.10
2019-02-08T14:53:05.476Z,3.43
2019-02-08T14:55:34.823Z,2.67
2019-02-08T14:58:07.325Z,3.00
2019-02-08T15:00:36.610Z,2.10
2019-02-08T15:03:06.085Z,2.10
2019-02-08T15:05:35.437Z,1.73
2019-02-08T15:08:05.115Z,2.90
2019-02-08T15:10:40.575Z,3.70
2019-02-08T15:13:09.892Z,138.33
2019-02-08T15:15:39.307Z,122.57
2019-02-08T15:18:08.796Z,37.37
2019-02-08T15:20:38.364Z,21.93
2019-02-08T15:23:07.723Z,24.70
2019-02-08T15:25:37.013Z,23.33
2019-02-08T15:28:06.380Z,20.47
2019-02-08T15:30:38.655Z,6.83
2019-02-08T15:33:07.962Z,7.03
2019-02-08T15:35:38.312Z,6.80
2019-02-08T15:38:07.746Z,6.80
2019-02-08T15:40:39.856Z,9.03
2019-02-08T15:43:10.279Z,8.10
2019-02-08T15:45:40.531Z,8.80
2019-02-08T15:48:09.961Z,8.53
2019-02-08T15:50:39.307Z,7.90
2019-02-08T15:53:08.605Z,9.23
2019-02-08T15:55:41.229Z,11.70
2019-02-08T15:58:10.532Z,9.50
2019-02-08T16:00:39.887Z,8.23
2019-02-08T16:03:10.859Z,9.10
2019-02-08T16:05:40.285Z,10.40
2019-02-08T16:08:09.664Z,7.23
2019-02-08T16:10:38.962Z,6.60
2019-02-08T16:13:08.239Z,12.60
2019-02-08T16:15:37.735Z,29.47
2019-02-08T16:18:07.294Z,16.67
2019-02-08T16:20:36.603Z,47.37
2019-02-08T16:23:05.960Z,25.23
2019-02-08T16:25:35.436Z,18.00
2019-02-08T16:28:05.250Z,12.37
2019-02-08T16:30:36.588Z,7.10
2019-02-08T16:33:07.798Z,6.00
2019-02-08T16:35:37.097Z,6.33
2019-02-08T16:38:07.217Z,7.33
2019-02-08T16:40:36.589Z,5.77
2019-02-08T16:43:06.610Z,9.13
2019-02-08T16:45:40.650Z,18.70
2019-02-08T16:48:12.312Z,18.27
2019-02-08T16:50:42.614Z,21.57
2019-02-08T16:53:12.839Z,15.63
2019-02-08T16:55:42.211Z,40.57
2019-02-08T16:58:12.634Z,16.77
2019-02-08T17:00:42.803Z,6.40
2019-02-08T17:03:13.719Z,10.03
2019-02-08T17:05:43.442Z,16.93
2019-02-08T17:08:12.950Z,11.57
2019-02-08T17:10:42.385Z,15.90
2019-02-08T17:13:11.707Z,11.63
2019-02-08T17:15:41.122Z,10.50
2019-02-08T17:18:11.477Z,11.37
2019-02-08T17:20:43.365Z,9.07
2019-02-08T17:23:12.815Z,5.30
2019-02-08T17:25:42.252Z,5.50
2019-02-08T17:28:11.911Z,6.03
2019-02-08T17:30:41.425Z,9.00
2019-02-08T17:33:10.875Z,14.43
2019-02-08T17:35:40.374Z,18.30
2019-02-08T17:38:09.828Z,10.43
2019-02-08T17:40:45.114Z,7.03
2019-02-08T17:43:14.488Z,6.43
2019-02-08T17:45:43.858Z,5.17
2019-02-08T17:48:15.654Z,4.23
2019-02-08T17:50:45.143Z,3.10
2019-02-08T17:53:14.497Z,8.20
2019-02-08T17:55:43.920Z,6.00
2019-02-08T17:58:13.219Z,5.97
2019-02-08T18:00:53.406Z,4.63
2019-02-08T18:03:22.953Z,4.93
2019-02-08T18:05:52.312Z,4.43
2019-02-08T18:08:21.759Z,3.40
2019-02-08T18:10:51.043Z,3.63
2019-02-08T18:13:20.349Z,7.43
2019-02-08T18:15:49.639Z,8.13
2019-02-08T18:18:19.095Z,6.43
2019-02-08T18:20:51.444Z,7.80
2019-02-08T18:23:20.759Z,7.77
2019-02-08T18:25:50.042Z,4.17
2019-02-08T18:28:19.391Z,3.57
2019-02-08T18:30:50.047Z,4.13
2019-02-08T18:33:19.397Z,4.87
2019-02-08T18:35:48.666Z,5.23
2019-02-08T18:38:18.006Z,5.37
2019-02-08T18:40:48.275Z,4.90
2019-02-08T18:43:17.596Z,4.70
2019-02-08T18:45:47.935Z,5.13
2019-02-08T18:48:17.225Z,5.67
2019-02-08T18:50:48.990Z,4.10
2019-02-08T18:53:18.271Z,3.57
2019-02-08T18:55:48.515Z,5.13
2019-02-08T18:58:19.425Z,3.70
2019-02-08T19:00:52.718Z,10.47
2019-02-08T19:03:23.150Z,5.40
2019-02-08T19:05:52.429Z,3.80
2019-02-08T19:08:21.732Z,5.70
2019-02-08T19:10:51.133Z,4.27
2019-02-08T19:13:20.532Z,5.30
2019-02-08T19:15:50.895Z,7.07
2019-02-08T19:18:20.377Z,7.13
2019-02-08T19:20:49.877Z,7.60
2019-02-08T19:23:19.271Z,18.53
2019-02-08T19:25:48.607Z,22.43
2019-02-08T19:28:18.027Z,18.83
2019-02-08T19:30:47.327Z,17.03
2019-02-08T19:33:17.321Z,20.37
2019-02-08T19:35:46.679Z,11.33
2019-02-08T19:38:15.965Z,10.10
2019-02-08T19:40:48.711Z,7.47
2019-02-08T19:43:18.003Z,7.43
2019-02-08T19:45:47.444Z,7.53
2019-02-08T19:48:17.910Z,5.60
2019-02-08T19:50:48.132Z,7.93
2019-02-08T19:53:17.495Z,31.83
2019-02-08T19:55:46.854Z,28.50
2019-02-08T19:58:16.182Z,20.23
2019-02-08T20:00:45.493Z,26.13
2019-02-08T20:03:14.848Z,19.03
2019-02-08T20:05:44.223Z,14.77
2019-02-08T20:08:14.358Z,18.63
2019-02-08T20:10:48.846Z,25.73
2019-02-08T20:13:18.138Z,16.87
2019-02-08T20:15:47.422Z,14.43
2019-02-08T20:18:16.720Z,55.90
2019-02-08T20:20:46.050Z,20.80
2019-02-08T20:23:15.343Z,12.80
2019-02-08T20:25:46.270Z,11.17
2019-02-08T20:28:17.857Z,10.80
2019-02-08T20:30:47.173Z,15.87
2019-02-08T20:33:16.485Z,24.83
2019-02-08T20:35:46.764Z,36.53
2019-02-08T20:38:16.073Z,76.03
2019-02-08T20:40:50.491Z,44.77
2019-02-08T20:43:19.895Z,29.87
2019-02-08T20:45:49.207Z,34.23
2019-02-08T20:48:20.824Z,28.67
2019-02-08T20:50:50.263Z,94.70
2019-02-08T20:53:20.103Z,80.30
2019-02-08T20:55:49.557Z,20.07
2019-02-08T20:58:19.357Z,17.10
2019-02-08T21:00:50.939Z,17.43
2019-02-08T21:03:21.183Z,63.57
2019-02-08T21:05:50.615Z,25.07
2019-02-08T21:08:20.285Z,11.80
2019-02-08T21:10:49.659Z,11.47
2019-02-08T21:13:19.067Z,13.03
2019-02-08T21:15:48.383Z,31.87
2019-02-08T21:18:17.698Z,26.63
2019-02-08T21:20:47.137Z,25.43
2019-02-08T21:23:16.530Z,15.50
2019-02-08T21:25:51.829Z,14.90
2019-02-08T21:28:16.882Z,17.03
2019-02-08T21:30:46.315Z,14.57
2019-02-08T21:33:15.635Z,17.47
2019-02-08T21:35:45.055Z,19.87
2019-02-08T21:38:14.368Z,20.30
2019-02-08T21:40:44.831Z,20.20
2019-02-08T21:43:14.219Z,13.23
2019-02-08T21:45:44.583Z,11.97
2019-02-08T21:48:14.614Z,24.07
2019-02-08T21:50:44.005Z,15.10
2019-02-08T21:53:13.350Z,9.53
2019-02-08T21:55:42.726Z,9.67
2019-02-08T21:58:12.161Z,11.20
2019-02-08T22:00:43.772Z,13.10
2019-02-08T22:03:13.255Z,15.83
2019-02-08T22:05:45.646Z,19.93
2019-02-08T22:08:14.941Z,26.27
2019-02-08T22:10:44.226Z,22.17
2019-02-08T22:13:13.543Z,18.03
2019-02-08T22:15:44.270Z,25.83
2019-02-08T22:18:13.579Z,28.70
2019-02-08T22:20:42.968Z,35.10
2019-02-08T22:23:12.273Z,24.43
2019-02-08T22:25:41.569Z,23.97
2019-02-08T22:28:10.994Z,18.33
2019-02-08T22:30:40.587Z,22.80
2019-02-08T22:33:10.953Z,22.13
2019-02-08T22:35:40.300Z,20.57
2019-02-08T22:38:09.758Z,19.70
2019-02-08T22:40:39.203Z,19.47
2019-02-08T22:43:08.495Z,15.03
2019-02-08T22:45:42.327Z,15.43
2019-02-08T22:48:11.686Z,16.03
2019-02-08T22:50:41.033Z,15.40
2019-02-08T22:53:10.355Z,14.57
2019-02-08T22:55:39.666Z,18.13
2019-02-08T22:58:09.978Z,24.00
2019-02-08T23:00:51.354Z,22.07
2019-02-08T23:03:20.630Z,17.73
2019-02-08T23:05:50.141Z,16.30
2019-02-08T23:08:19.455Z,16.70
2019-02-08T23:10:48.763Z,15.40
2019-02-08T23:13:18.111Z,14.80
2019-02-08T23:15:47.417Z,16.73
2019-02-08T23:18:16.772Z,23.70
2019-02-08T23:20:46.062Z,22.23
2019-02-08T23:23:15.342Z,21.57
2019-02-08T23:25:44.722Z,22.83
2019-02-08T23:28:13.997Z,26.33
2019-02-08T23:30:43.298Z,31.83
2019-02-08T23:33:12.613Z,23.90
2019-02-08T23:35:43.263Z,17.37
2019-02-08T23:38:12.742Z,16.47
2019-02-08T23:40:42.035Z,14.90
2019-02-08T23:43:11.325Z,10.87
2019-02-08T23:45:40.635Z,12.50
2019-02-08T23:48:09.978Z,10.17
2019-02-08T23:50:39.286Z,10.23
2019-02-08T23:53:08.724Z,13.13
2019-02-08T23:55:38.027Z,9.73
2019-02-08T23:58:07.442Z,11.10
